createdAt,value
2019-01-14T00:05:33.833Z,12.6
2019-01-14T00:15:33.031Z,12.6
2019-01-14T00:25:32.235Z,12.6
2019-01-14T00:35:31.436Z,12.6
2019-01-14T00:45:30.640Z,12.6
2019-01-14T00:55:29.880Z,12.6
2019-01-14T01:05:29.046Z,12.6
2019-01-14T01:15:28.249Z,12.7
2019-01-14T01:25:27.455Z,12.6
2019-01-14T01:35:26.655Z,12.7
2019-01-14T01:45:25.858Z,12.7
2019-01-14T01:55:25.062Z,12.7
2019-01-14T02:05:24.265Z,12.7
2019-01-14T02:15:23.463Z,12.7
2019-01-14T02:25:22.665Z,12.8
2019-01-14T02:35:21.869Z,12.8
2019-01-14T02:45:21.070Z,12.8
2019-01-14T02:55:20.277Z,12.8
2019-01-14T03:05:19.481Z,12.8
2019-01-14T03:15:18.680Z,12.8
2019-01-14T03:25:17.880Z,12.8
2019-01-14T03:35:17.181Z,12.8
2019-01-14T03:45:16.284Z,12.8
2019-01-14T03:55:15.490Z,12.4
2019-01-14T04:05:14.696Z,12.4
2019-01-14T04:15:13.889Z,12.3
2019-01-14T04:25:13.098Z,12.2
2019-01-14T04:35:12.292Z,12.3
2019-01-14T04:45:11.492Z,12.2
2019-01-14T04:55:10.701Z,12.1
2019-01-14T05:05:09.909Z,12.1
2019-01-14T05:15:09.114Z,12
2019-01-14T05:25:08.326Z,11.9
2019-01-14T05:35:07.534Z,11.9
2019-01-14T05:45:06.743Z,11.9
2019-01-14T05:55:05.948Z,11.9
2019-01-14T06:05:05.160Z,11.9
2019-01-14T06:15:04.361Z,11.9
2019-01-14T06:25:03.675Z,11.9
2019-01-14T06:35:02.775Z,11.9
2019-01-14T06:45:01.976Z,11.9
2019-01-14T06:55:01.174Z,11.9
2019-01-14T07:05:00.380Z,11.9
2019-01-14T07:14:59.580Z,12
2019-01-14T07:24:58.781Z,12
2019-01-14T07:34:57.983Z,12.1
2019-01-14T07:44:57.186Z,12.3
2019-01-14T07:54:56.389Z,12.4
2019-01-14T08:04:55.591Z,12.6
2019-01-14T08:14:54.788Z,12.7
2019-01-14T08:24:53.992Z,12.9
2019-01-14T08:34:53.198Z,13.2
2019-01-14T08:44:52.395Z,13.6
2019-01-14T08:54:51.592Z,14
2019-01-14T09:04:50.792Z,14.3
2019-01-14T09:14:49.996Z,14.6
2019-01-14T09:24:49.197Z,14.8
2019-01-14T09:34:48.397Z,15.1
2019-01-14T09:44:47.601Z,15.3
2019-01-14T09:54:46.799Z,15.4
2019-01-14T10:04:46.001Z,15.7
2019-01-14T10:14:45.199Z,15.8
2019-01-14T10:24:44.403Z,16
2019-01-14T10:34:43.602Z,16.1
2019-01-14T10:44:42.805Z,16.3
2019-01-14T10:54:42.010Z,16.4
2019-01-14T11:04:41.214Z,16.6
2019-01-14T11:14:40.421Z,16.6
2019-01-14T11:24:39.628Z,16.8
2019-01-14T11:34:38.837Z,16.8
2019-01-14T11:44:38.045Z,16.9
2019-01-14T11:54:37.257Z,16.9
2019-01-14T12:04:36.461Z,17.1
2019-01-14T12:14:35.664Z,17.2
2019-01-14T12:24:34.874Z,17.3
2019-01-14T12:34:34.078Z,17.4
2019-01-14T12:44:33.284Z,17.4
2019-01-14T12:54:32.485Z,17.6
2019-01-14T13:04:31.694Z,17.6
2019-01-14T13:14:30.898Z,17.6
2019-01-14T13:24:30.100Z,17.7
2019-01-14T13:34:29.308Z,17.7
2019-01-14T13:44:28.513Z,17.8
2019-01-14T13:54:27.711Z,17.8
2019-01-14T14:04:26.914Z,17.7
2019-01-14T14:14:26.115Z,17.8
2019-01-14T14:24:25.316Z,17.8
2019-01-14T14:34:24.521Z,17.7
2019-01-14T14:44:23.777Z,17.7
2019-01-14T14:54:22.922Z,17.7
2019-01-14T15:04:22.126Z,17.7
2019-01-14T15:14:21.327Z,17.6
2019-01-14T15:24:20.530Z,17.6
2019-01-14T15:34:19.731Z,17.6
2019-01-14T15:44:18.932Z,17.6
2019-01-14T15:54:18.130Z,17.6
2019-01-14T16:04:17.331Z,17.5
2019-01-14T16:14:16.536Z,17.5
2019-01-14T16:24:15.737Z,17.4
2019-01-14T16:34:14.936Z,17.4
2019-01-14T16:44:14.142Z,17.1
2019-01-14T16:54:13.348Z,17.1
2019-01-14T17:04:12.556Z,17.1
2019-01-14T17:14:11.762Z,16.9
2019-01-14T17:24:11.020Z,16.8
2019-01-14T17:34:10.182Z,16.4
2019-01-14T17:44:09.391Z,16.3
2019-01-14T17:54:08.602Z,16.3
2019-01-14T18:04:07.804Z,16.3
2019-01-14T18:14:07.014Z,16.3
2019-01-14T18:24:06.220Z,16.2
2019-01-14T18:34:05.476Z,16.2
2019-01-14T18:44:04.640Z,16.1
2019-01-14T18:54:03.848Z,16.1
2019-01-14T19:04:03.055Z,15.9
2019-01-14T19:14:02.318Z,15.6
2019-01-14T19:24:01.492Z,15.7
2019-01-14T19:34:00.702Z,15.6
2019-01-14T19:43:59.921Z,15.6
2019-01-14T19:53:59.139Z,15.6
2019-01-14T20:03:58.348Z,15.6
2019-01-14T20:13:57.564Z,15.6
2019-01-14T20:23:56.800Z,15.5
2019-01-14T20:33:55.997Z,15.3
2019-01-14T20:43:55.219Z,15.4
2019-01-14T20:53:54.429Z,15.3
2019-01-14T21:03:53.682Z,15.4
2019-01-14T21:13:52.841Z,15.3
2019-01-14T21:23:52.045Z,15.3
2019-01-14T21:33:51.251Z,15.3
2019-01-14T21:43:50.460Z,15.3
2019-01-14T21:53:49.668Z,15.3
2019-01-14T22:03:48.880Z,15.3
2019-01-14T22:13:48.085Z,15.3
2019-01-14T22:23:47.301Z,15.3
2019-01-14T22:33:46.502Z,15.2
2019-01-14T22:43:45.711Z,15.2
2019-01-14T22:53:44.913Z,15.2
2019-01-14T23:03:44.119Z,15.2
2019-01-14T23:13:43.355Z,15.1
2019-01-14T23:23:42.585Z,15.1
2019-01-14T23:33:41.739Z,15.1
2019-01-14T23:43:40.946Z,15.1
2019-01-14T23:53:40.149Z,15.1
